X  Stänga Metar väderdata för luftfart        LYNI Nis Airport
Temperatur
9°C Temperatur
8°C Daggpunkt
93% Fuktighet



Vind
19 KM/T
12 MPH
5 M/S
10 KTS



330°
NNV
Nuvarande omständigheter

Mostly Cloudy with Light Rain Mestadels molnigt , ljus Regn
Tryck 1008 (hPa) - 29.77 (inHg)
Synlighet 6 (mil) - 10 (km)
Flygplats
Flygplatskod LYNI

Plats: Nis Airport
Distans: 63 (km)

Metar:
METAR LYNI 250630Z 33010KT 290V360 9999 -RA FEW013 BKN047 09/08 Q1008 NOSIG

Tid: 25-04-2024 08:30 CEST